Time;durP1;ratioP1;P1;durP2;ratioP2;P2;SDS_P1;SDS_P2;PMS_P1;PMS_P2;Temp;Humidity;BMP_temperature;BMP_pressure;BME280_temperature;BME280_humidity;BME280_pressure;Samples;Min_cycle;Max_cycle;Signal;HPM_P1;HPM_P2
2022/09/08 00:00:51;;;;;;;20.33;8.73;;;19.00;99.90;;;;;;5118549;28;20481;-58
2022/09/08 00:03:21;;;;;;;18.90;8.45;;;18.90;99.90;;;;;;5118682;28;20465;-58
2022/09/08 00:05:55;;;;;;;28.23;8.70;;;18.90;99.90;;;;;;5118746;28;20031;-58
2022/09/08 00:08:21;;;;;;;18.40;8.52;;;19.00;99.90;;;;;;5118794;28;20252;-58
2022/09/08 00:11:00;;;;;;;13.80;8.27;;;19.10;99.90;;;;;;5118595;28;20039;-58
2022/09/08 00:13:29;;;;;;;17.88;8.23;;;18.90;99.90;;;;;;5118590;28;20096;-58
2022/09/08 00:15:54;;;;;;;15.30;8.27;;;18.90;99.90;;;;;;5118731;27;20118;-58
2022/09/08 00:18:22;;;;;;;15.95;8.82;;;18.80;99.90;;;;;;5118501;27;20417;-58
2022/09/08 00:20:48;;;;;;;36.80;9.95;;;18.90;99.90;;;;;;5118396;28;20062;-58
2022/09/08 00:23:14;;;;;;;19.80;10.45;;;18.80;99.90;;;;;;5117055;28;20493;-57
2022/09/08 00:28:24;;;;;;;30.40;14.02;;;18.80;99.90;;;;;;5118243;28;20039;-58
2022/09/08 00:30:51;;;;;;;33.72;14.52;;;18.90;99.90;;;;;;5118333;28;20020;-58
2022/09/08 00:33:16;;;;;;;28.45;14.60;;;18.90;99.90;;;;;;5118172;28;20023;-58
2022/09/08 00:35:43;;;;;;;28.00;13.35;;;18.90;99.90;;;;;;5118063;28;20024;-58
2022/09/08 00:38:11;;;;;;;29.92;14.90;;;18.90;99.90;;;;;;5118329;28;20036;-57
2022/09/08 00:40:45;;;;;;;37.13;16.67;;;18.90;99.90;;;;;;5118068;28;20480;-58
2022/09/08 00:43:28;;;;;;;31.40;15.30;;;18.80;99.90;;;;;;5118022;28;20038;-57
2022/09/08 00:45:54;;;;;;;36.85;15.65;;;18.80;99.90;;;;;;5117846;28;20036;-57
2022/09/08 00:48:21;;;;;;;35.50;16.10;;;18.70;99.90;;;;;;5118062;28;20023;-58
2022/09/08 00:50:47;;;;;;;36.13;16.70;;;18.70;99.90;;;;;;5118245;28;20062;-58
2022/09/08 00:53:16;;;;;;;34.35;15.98;;;18.60;99.90;;;;;;5117890;28;20415;-57
2022/09/08 00:55:42;;;;;;;29.80;14.77;;;18.60;99.90;;;;;;5117840;28;20484;-57
2022/09/08 00:58:09;;;;;;;33.55;15.40;;;18.70;99.90;;;;;;5117837;28;20062;-57
2022/09/08 01:00:36;;;;;;;29.95;14.38;;;18.60;99.90;;;;;;5117466;28;20063;-57
2022/09/08 01:03:05;;;;;;;30.20;15.70;;;18.60;99.90;;;;;;5117527;28;20480;-57
2022/09/08 01:05:57;;;;;;;26.52;14.48;;;18.60;99.90;;;;;;5117663;28;20024;-57
2022/09/08 01:14:16;;;;;;;23.92;13.15;;;18.50;99.90;;;;;;5117351;28;20028;-57
2022/09/08 01:16:46;;;;;;;23.90;11.48;;;18.40;99.90;;;;;;5117573;28;20031;-57
2022/09/08 01:19:30;;;;;;;28.35;12.25;;;18.40;99.90;;;;;;5117439;28;20408;-57
2022/09/08 01:22:20;;;;;;;24.42;12.50;;;18.40;99.90;;;;;;5117343;28;20352;-57
2022/09/08 01:24:56;;;;;;;22.27;12.05;;;18.40;99.90;;;;;;5117148;28;20397;-57
2022/09/08 01:27:25;;;;;;;26.35;11.68;;;18.40;99.90;;;;;;5117571;28;20365;-57
2022/09/08 01:29:59;;;;;;;24.77;9.05;;;18.30;99.90;;;;;;5117122;28;20453;-57
2022/09/08 01:32:29;;;;;;;20.67;9.90;;;18.20;99.90;;;;;;5117038;28;20053;-57
2022/09/08 01:34:55;;;;;;;21.27;10.23;;;18.20;99.90;;;;;;5117355;28;20031;-57
2022/09/08 01:37:21;;;;;;;17.77;9.27;;;18.20;99.90;;;;;;5117042;28;20046;-57
2022/09/08 01:39:47;;;;;;;17.20;8.63;;;18.30;99.90;;;;;;5117054;28;20031;-57
2022/09/08 01:42:13;;;;;;;18.45;7.97;;;18.20;99.90;;;;;;5116874;28;20115;-57
2022/09/08 01:47:23;;;;;;;16.20;8.30;;;18.20;99.90;;;;;;5116904;28;20027;-57
2022/09/08 01:49:49;;;;;;;16.33;8.52;;;18.10;99.90;;;;;;5116427;28;20036;-57
2022/09/08 01:52:15;;;;;;;16.85;8.23;;;18.00;99.90;;;;;;5116808;28;20043;-57
2022/09/08 01:54:40;;;;;;;14.02;8.00;;;17.90;99.90;;;;;;5116772;28;20024;-57
2022/09/08 01:57:06;;;;;;;16.95;7.78;;;17.80;99.90;;;;;;5116380;28;20558;-57
2022/09/08 01:59:32;;;;;;;15.32;7.50;;;17.90;99.90;;;;;;5115426;28;20118;-57
2022/09/08 02:01:58;;;;;;;17.98;8.57;;;17.90;99.90;;;;;;5116303;28;20032;-57
2022/09/08 02:04:24;;;;;;;14.40;8.30;;;17.90;99.90;;;;;;5116307;28;20043;-57
2022/09/08 02:06:51;;;;;;;20.15;8.50;;;17.90;99.90;;;;;;5116441;28;20160;-57
2022/09/08 02:09:17;;;;;;;16.33;8.32;;;17.90;99.90;;;;;;5116522;28;20046;-57
2022/09/08 02:11:43;;;;;;;19.58;7.85;;;17.80;99.90;;;;;;5115105;28;20496;-57
2022/09/08 02:14:09;;;;;;;14.30;7.40;;;17.80;99.90;;;;;;5115643;28;20462;-57
2022/09/08 02:16:36;;;;;;;15.27;7.32;;;17.90;99.90;;;;;;5116055;28;20038;-57
2022/09/08 02:19:02;;;;;;;13.85;6.93;;;17.90;99.90;;;;;;5116119;28;20083;-57
2022/09/08 02:21:27;;;;;;;17.77;8.00;;;17.90;99.90;;;;;;5116070;28;20019;-57
2022/09/08 02:23:54;;;;;;;12.98;7.57;;;17.90;99.90;;;;;;5116173;28;20079;-57
2022/09/08 02:26:26;;;;;;;12.27;6.70;;;17.90;99.90;;;;;;5116021;28;20055;-57
2022/09/08 02:28:53;;;;;;;11.43;6.75;;;17.80;99.90;;;;;;5116060;28;20438;-57
2022/09/08 02:31:20;;;;;;;14.07;7.97;;;17.80;99.90;;;;;;5116003;28;20106;-57
2022/09/08 02:33:47;;;;;;;14.60;7.57;;;17.80;99.90;;;;;;5115900;28;20024;-57
2022/09/08 02:36:13;;;;;;;11.48;7.15;;;17.80;99.90;;;;;;5115967;28;20045;-57
2022/09/08 02:38:39;;;;;;;13.57;7.40;;;17.80;99.90;;;;;;5115900;28;20032;-57
2022/09/08 02:41:06;;;;;;;12.00;8.18;;;17.80;99.90;;;;;;5115919;28;20110;-57
2022/09/08 02:43:33;;;;;;;16.50;8.00;;;17.80;99.90;;;;;;5114314;28;20036;-57
2022/09/08 02:46:04;;;;;;;14.20;7.75;;;17.70;99.90;;;;;;5115710;28;20031;-57
2022/09/08 02:48:30;;;;;;;12.35;7.78;;;17.70;99.90;;;;;;5115778;28;20024;-57
2022/09/08 02:51:04;;;;;;;12.98;8.30;;;17.70;99.90;;;;;;5115524;28;20091;-57
2022/09/08 02:53:31;;;;;;;10.35;7.38;;;17.70;99.90;;;;;;5115659;28;20590;-57
2022/09/08 02:55:58;;;;;;;14.07;8.10;;;17.70;99.90;;;;;;5115664;28;20027;-57
2022/09/08 02:58:24;;;;;;;15.35;7.88;;;17.70;99.90;;;;;;5115557;28;20034;-57
2022/09/08 03:00:50;;;;;;;11.68;7.55;;;17.60;99.90;;;;;;5115320;28;20024;-57
2022/09/08 03:03:16;;;;;;;14.90;7.80;;;17.60;99.90;;;;;;5115388;28;20032;-57
2022/09/08 03:05:42;;;;;;;14.15;7.93;;;17.60;99.90;;;;;;5115284;28;20020;-57
2022/09/08 03:08:09;;;;;;;11.68;8.07;;;17.60;99.90;;;;;;5115330;27;20032;-57
2022/09/08 03:10:35;;;;;;;27.95;8.10;;;17.60;99.90;;;;;;5114080;28;20028;-57
2022/09/08 03:13:02;;;;;;;19.73;9.75;;;17.60;99.90;;;;;;5115318;28;20107;-57
2022/09/08 03:15:30;;;;;;;17.60;8.60;;;17.50;99.90;;;;;;5115204;28;20421;-57
2022/09/08 03:17:57;;;;;;;12.75;8.23;;;17.40;99.90;;;;;;5115179;28;20056;-57
2022/09/08 03:20:24;;;;;;;24.38;8.80;;;17.40;99.90;;;;;;5115141;28;20024;-57
2022/09/08 03:22:50;;;;;;;14.00;7.63;;;17.40;99.90;;;;;;5115347;28;20036;-57
2022/09/08 03:25:17;;;;;;;14.45;8.00;;;17.40;99.90;;;;;;5114950;28;20031;-57
2022/09/08 03:27:43;;;;;;;14.68;7.25;;;17.40;99.90;;;;;;5115250;28;20035;-57
2022/09/08 03:30:11;;;;;;;17.70;8.02;;;17.50;99.90;;;;;;5115003;28;20028;-57
2022/09/08 03:32:39;;;;;;;14.02;7.85;;;17.40;99.90;;;;;;5114911;28;20019;-57
2022/09/08 03:35:11;;;;;;;14.75;7.55;;;17.40;99.90;;;;;;5115043;28;20032;-57
2022/09/08 03:37:38;;;;;;;14.48;7.22;;;17.40;99.90;;;;;;5114951;28;20023;-57
2022/09/08 03:40:09;;;;;;;16.13;8.68;;;17.40;99.90;;;;;;5115038;28;20449;-57
2022/09/08 03:42:37;;;;;;;17.83;7.57;;;17.40;99.90;;;;;;5115019;28;20106;-57
2022/09/08 03:45:06;;;;;;;14.93;8.15;;;17.40;99.90;;;;;;5114511;28;20062;-57
2022/09/08 03:47:32;;;;;;;12.15;8.18;;;17.30;99.90;;;;;;5114860;28;20043;-57
2022/09/08 03:49:59;;;;;;;15.85;8.45;;;17.20;99.90;;;;;;5114756;28;20492;-57
2022/09/08 03:52:25;;;;;;;16.83;8.73;;;17.20;99.90;;;;;;5114775;28;20116;-57
2022/09/08 03:54:51;;;;;;;18.88;8.52;;;17.20;99.90;;;;;;5114645;28;20032;-57
2022/09/08 03:57:21;;;;;;;20.20;8.80;;;17.30;99.90;;;;;;5114797;28;20020;-57
2022/09/08 03:59:48;;;;;;;24.40;9.13;;;17.20;99.90;;;;;;5114587;28;20032;-57
2022/09/08 04:02:14;;;;;;;14.65;8.43;;;17.20;99.90;;;;;;5114737;28;20024;-57
2022/09/08 04:04:40;;;;;;;13.75;8.43;;;17.20;99.90;;;;;;5114751;28;20349;-57
2022/09/08 04:07:07;;;;;;;21.73;9.02;;;17.20;99.90;;;;;;5114639;28;20027;-57
2022/09/08 04:09:33;;;;;;;15.48;8.05;;;17.10;99.90;;;;;;5114590;28;20016;-57
2022/09/08 04:11:59;;;;;;;16.73;8.57;;;17.10;99.90;;;;;;5114770;28;20055;-57
2022/09/08 04:14:25;;;;;;;14.77;8.50;;;17.10;99.90;;;;;;5114427;28;20088;-57
2022/09/08 04:16:51;;;;;;;14.43;8.23;;;17.10;99.90;;;;;;5114558;28;20028;-57
2022/09/08 04:19:17;;;;;;;16.83;8.68;;;17.10;99.90;;;;;;5114537;28;20040;-57
2022/09/08 04:21:42;;;;;;;13.98;7.95;;;17.10;99.90;;;;;;5114413;28;20055;-57
2022/09/08 04:24:08;;;;;;;18.27;8.40;;;17.10;99.90;;;;;;5114374;28;20092;-57
2022/09/08 04:26:34;;;;;;;18.52;9.38;;;17.10;99.90;;;;;;5114487;28;20078;-57
2022/09/08 04:29:01;;;;;;;15.60;8.60;;;17.10;99.90;;;;;;5114479;28;20427;-57
2022/09/08 04:31:27;;;;;;;21.38;8.68;;;17.10;99.90;;;;;;5114677;28;20034;-57
2022/09/08 04:33:53;;;;;;;17.05;8.32;;;17.10;99.90;;;;;;5114288;28;20031;-57
2022/09/08 04:36:21;;;;;;;14.48;7.97;;;17.20;99.90;;;;;;5114397;28;20024;-57
2022/09/08 04:38:48;;;;;;;12.30;9.07;;;17.20;99.90;;;;;;5116689;28;20106;-57
2022/09/08 04:41:16;;;;;;;22.23;9.93;;;17.30;99.90;;;;;;5118219;28;20020;-57
2022/09/08 04:43:42;;;;;;;16.65;9.35;;;17.20;99.90;;;;;;5118091;28;20038;-57
2022/09/08 04:46:11;;;;;;;16.98;9.05;;;17.20;99.90;;;;;;5118339;28;20103;-57
2022/09/08 04:48:39;;;;;;;18.25;8.95;;;17.30;99.90;;;;;;5118022;28;20103;-57
2022/09/08 04:51:06;;;;;;;16.95;8.85;;;17.30;99.90;;;;;;5116516;28;20047;-57
2022/09/08 04:53:33;;;;;;;16.52;9.88;;;17.30;99.90;;;;;;5118055;28;20558;-57
2022/09/08 04:56:01;;;;;;;17.58;11.50;;;17.40;99.90;;;;;;5117879;28;20028;-57
2022/09/08 04:58:29;;;;;;;21.15;9.88;;;17.40;99.90;;;;;;5117883;28;20027;-57
2022/09/08 05:01:06;;;;;;;18.58;10.65;;;17.50;99.90;;;;;;5117769;28;20101;-57
2022/09/08 05:03:32;;;;;;;16.02;10.52;;;17.60;99.90;;;;;;5117656;28;20040;-57
2022/09/08 05:06:09;;;;;;;16.88;10.85;;;17.60;99.90;;;;;;5117644;28;20035;-57
2022/09/08 05:08:35;;;;;;;19.60;10.13;;;17.60;99.90;;;;;;5117416;28;20107;-57
2022/09/08 05:11:02;;;;;;;17.48;10.55;;;17.60;99.90;;;;;;5117481;28;20028;-57
2022/09/08 05:13:29;;;;;;;17.48;10.27;;;17.70;99.90;;;;;;5108185;28;20062;-57
2022/09/08 05:16:03;;;;;;;18.75;11.25;;;17.80;99.90;;;;;;5096887;28;20032;-57
2022/09/08 05:18:29;;;;;;;15.88;9.98;;;17.90;99.90;;;;;;5103349;28;20016;-57
2022/09/08 05:20:56;;;;;;;16.02;9.90;;;17.90;99.90;;;;;;5105971;28;20038;-57
2022/09/08 05:23:22;;;;;;;13.73;9.85;;;18.00;99.90;;;;;;5115268;28;20038;-57
2022/09/08 05:25:56;;;;;;;17.67;10.82;;;18.10;99.90;;;;;;5117415;28;20397;-57
2022/09/08 05:28:25;;;;;;;20.17;13.63;;;18.30;99.90;;;;;;5114103;28;20023;-57
2022/09/08 05:30:54;;;;;;;23.73;11.45;;;18.40;99.90;;;;;;5106657;28;20024;-57
2022/09/08 05:33:22;;;;;;;23.70;12.60;;;18.50;99.90;;;;;;5097156;28;20077;-57
2022/09/08 05:35:52;;;;;;;22.77;12.82;;;18.60;99.90;;;;;;5117101;28;20031;-57
2022/09/08 05:38:19;;;;;;;34.97;13.57;;;18.80;99.90;;;;;;5115467;28;20040;-57
2022/09/08 05:40:46;;;;;;;28.15;12.65;;;18.70;99.90;;;;;;5105118;28;20424;-57
2022/09/08 05:43:12;;;;;;;30.50;14.88;;;18.80;99.90;;;;;;5108192;28;20420;-57
2022/09/08 05:45:42;;;;;;;24.42;13.23;;;18.90;99.90;;;;;;5099505;28;20024;-57
2022/09/08 05:48:08;;;;;;;20.52;10.70;;;19.00;99.90;;;;;;5102746;28;20097;-57
2022/09/08 05:50:34;;;;;;;22.85;10.75;;;19.10;99.90;;;;;;5103814;28;20044;-57
2022/09/08 05:53:02;;;;;;;21.15;10.85;;;19.00;99.90;;;;;;5108955;27;20019;-57
2022/09/08 05:55:28;;;;;;;39.00;12.65;;;19.00;99.90;;;;;;5116879;28;20026;-57
2022/09/08 05:57:55;;;;;;;21.48;10.52;;;19.30;99.90;;;;;;5109577;28;20114;-57
2022/09/08 06:00:21;;;;;;;25.75;10.23;;;19.50;99.90;;;;;;5116035;28;20065;-57
2022/09/08 06:02:51;;;;;;;19.90;9.63;;;19.70;99.90;;;;;;5112729;28;20027;-57
2022/09/08 06:05:17;;;;;;;22.02;9.35;;;19.80;99.90;;;;;;5116393;28;20027;-57
2022/09/08 06:07:43;;;;;;;25.73;10.35;;;20.00;99.90;;;;;;5115051;28;20035;-57
2022/09/08 06:10:10;;;;;;;17.92;8.35;;;20.20;99.90;;;;;;5116101;28;20027;-57
2022/09/08 06:12:35;;;;;;;19.67;8.70;;;20.20;99.90;;;;;;5116375;28;20036;-57
2022/09/08 06:15:01;;;;;;;20.63;8.27;;;20.40;99.90;;;;;;5114319;28;20016;-57
2022/09/08 06:17:27;;;;;;;22.50;9.70;;;20.60;99.90;;;;;;5110706;28;20034;-57
2022/09/08 06:19:56;;;;;;;27.10;9.88;;;20.90;99.90;;;;;;5101980;28;20051;-57
2022/09/08 06:22:25;;;;;;;23.70;9.68;;;21.20;99.90;;;;;;5108736;28;20456;-57
2022/09/08 06:24:51;;;;;;;29.58;12.15;;;21.20;99.90;;;;;;5115615;28;20030;-57
2022/09/08 06:27:31;;;;;;;20.65;10.30;;;21.60;99.90;;;;;;5099546;28;20024;-57
2022/09/08 06:30:14;;;;;;;26.17;10.32;;;21.90;99.90;;;;;;5109959;28;20115;-57
2022/09/08 06:32:54;;;;;;;24.30;9.10;;;22.10;99.90;;;;;;5113445;28;20035;-57
2022/09/08 06:35:20;;;;;;;;;;;22.50;99.90;;;;;;5111895;28;20177;-57
2022/09/08 06:37:59;;;;;;;20.92;10.02;;;22.70;99.90;;;;;;5115996;28;19939;-57
2022/09/08 06:40:48;;;;;;;17.17;8.98;;;23.20;99.90;;;;;;5115869;28;20037;-57
2022/09/08 06:43:31;;;;;;;35.35;11.52;;;23.40;99.90;;;;;;5108737;28;20023;-57
2022/09/08 06:46:01;;;;;;;27.40;11.18;;;23.60;99.90;;;;;;5114085;28;20033;-57
2022/09/08 06:48:31;;;;;;;27.00;11.87;;;23.80;99.90;;;;;;5114394;28;20030;-57
2022/09/08 06:51:34;;;;;;;18.60;10.80;;;24.20;99.90;;;;;;5106004;28;20044;-58
2022/09/08 06:54:09;;;;;;;25.58;11.50;;;24.40;99.90;;;;;;5096264;28;20362;-58
2022/09/08 06:56:59;;;;;;;26.98;11.98;;;24.60;99.80;;;;;;5110459;28;20024;-57
2022/09/08 06:59:41;;;;;;;26.40;11.63;;;24.80;98.50;;;;;;5108384;28;20132;-58
2022/09/08 07:02:25;;;;;;;28.50;13.82;;;25.10;97.00;;;;;;5106874;28;20031;-58
2022/09/08 07:05:31;;;;;;;33.03;13.75;;;25.20;96.60;;;;;;5109976;28;20036;-58
2022/09/08 07:08:17;;;;;;;26.20;11.07;;;25.40;96.20;;;;;;5105161;28;20040;-58
2022/09/08 07:11:03;;;;;;;33.25;10.32;;;25.40;96.10;;;;;;5108223;28;20031;-58
2022/09/08 07:13:59;;;;;;;39.05;12.65;;;25.70;94.50;;;;;;5106842;28;20043;-58
2022/09/08 07:16:40;;;;;;;34.75;12.75;;;25.80;94.20;;;;;;5103645;28;20097;-58
2022/09/08 07:19:14;;;;;;;;;;;26.00;93.00;;;;;;5108399;28;20476;-58
2022/09/08 07:22:17;;;;;;;32.13;9.82;;;25.90;94.00;;;;;;5115043;28;19961;-58
2022/09/08 07:24:45;;;;;;;15.10;7.45;;;26.20;92.40;;;;;;5102300;28;20111;-58
2022/09/08 07:27:13;;;;;;;27.15;8.95;;;27.00;90.70;;;;;;5104497;28;20388;-58
2022/09/08 07:29:43;;;;;;;43.20;10.00;;;27.00;89.00;;;;;;5112410;28;20036;-58
2022/09/08 07:32:21;;;;;;;19.30;6.60;;;27.10;90.10;;;;;;5114689;28;20036;-58
2022/09/08 07:35:01;;;;;;;19.98;8.25;;;27.40;88.40;;;;;;5115129;28;20062;-58
2022/09/08 07:37:48;;;;;;;29.35;10.32;;;27.50;86.30;;;;;;5109603;28;20026;-58
2022/09/08 07:40:41;;;;;;;27.45;10.23;;;27.80;85.80;;;;;;5112441;28;20032;-58
2022/09/08 07:43:12;;;;;;;24.13;10.32;;;28.20;82.30;;;;;;5114797;28;20036;-58
2022/09/08 07:46:17;;;;;;;35.92;17.30;;;28.50;84.20;;;;;;5114465;28;20377;-58
2022/09/08 07:48:59;;;;;;;48.72;22.48;;;28.00;82.60;;;;;;5115042;28;20465;-58
2022/09/08 07:51:29;;;;;;;44.85;18.92;;;28.20;85.00;;;;;;5114762;28;20490;-58
2022/09/08 07:54:02;;;;;;;30.38;13.43;;;28.40;84.20;;;;;;5107057;28;20031;-58
2022/09/08 07:56:48;;;;;;;50.55;19.98;;;28.90;83.60;;;;;;5113399;28;20457;-58
2022/09/08 07:59:42;;;;;;;66.38;27.35;;;29.00;82.80;;;;;;5115467;28;20027;-58
2022/09/08 08:02:33;;;;;;;26.77;9.45;;;28.90;80.60;;;;;;5108108;28;20035;-58
2022/09/08 08:05:18;;;;;;;44.35;17.08;;;29.30;83.70;;;;;;5114982;28;20024;-58
2022/09/08 08:08:16;;;;;;;31.45;15.38;;;28.50;78.20;;;;;;5115056;28;20024;-58
2022/09/08 08:11:22;;;;;;;22.38;10.93;;;28.70;80.30;;;;;;5115255;28;20023;-58
2022/09/08 08:14:10;;;;;;;22.13;10.07;;;29.20;78.70;;;;;;5072546;28;20639;-58
2022/09/08 08:16:51;;;;;;;13.93;7.68;;;30.10;78.90;;;;;;5106410;28;20114;-58
2022/09/08 08:19:42;;;;;;;18.88;9.15;;;30.30;75.30;;;;;;5105278;28;20024;-58
2022/09/08 08:22:14;;;;;;;22.23;9.38;;;30.40;74.20;;;;;;5112454;28;20039;-59
2022/09/08 08:24:42;;;;;;;20.85;9.43;;;30.70;74.40;;;;;;5100659;28;20039;-58
2022/09/08 08:27:29;;;;;;;23.08;10.70;;;31.20;71.90;;;;;;5113204;28;20024;-59
2022/09/08 08:30:17;;;;;;;22.45;8.43;;;30.30;73.70;;;;;;5116308;28;20381;-58
2022/09/08 08:33:08;;;;;;;23.38;7.97;;;30.50;72.20;;;;;;5118165;28;20034;-58
2022/09/08 08:35:46;;;;;;;21.27;8.75;;;31.50;75.40;;;;;;5116461;28;20392;-58
2022/09/08 08:38:21;;;;;;;20.40;8.73;;;31.80;68.40;;;;;;5113483;28;20028;-59
2022/09/08 08:40:59;;;;;;;34.83;13.35;;;31.90;69.40;;;;;;5104311;28;20085;-58
2022/09/08 08:43:25;;;;;;;18.42;8.10;;;32.10;68.40;;;;;;5110913;28;20504;-58
2022/09/08 08:46:06;;;;;;;16.10;7.57;;;32.20;65.80;;;;;;5112043;28;20154;-58
2022/09/08 08:49:11;;;;;;;13.00;6.57;;;32.30;66.30;;;;;;5099139;28;20032;-58
2022/09/08 08:52:06;;;;;;;22.40;8.50;;;31.90;64.10;;;;;;5037842;28;20119;-58
2022/09/08 08:55:04;;;;;;;13.68;5.88;;;32.20;65.80;;;;;;5045573;28;20585;-58
2022/09/08 08:57:39;;;;;;;13.18;5.20;;;32.50;64.80;;;;;;5034633;28;20054;-58
2022/09/08 09:00:18;;;;;;;21.15;6.05;;;32.80;63.80;;;;;;5035904;28;20132;-58
2022/09/08 09:02:59;;;;;;;16.90;6.32;;;32.50;62.60;;;;;;5035189;28;20041;-58
2022/09/08 09:05:46;;;;;;;10.00;4.95;;;32.70;60.30;;;;;;5030967;28;20438;-58
2022/09/08 09:08:29;;;;;;;21.92;6.65;;;33.00;60.40;;;;;;5032749;28;20112;-59
2022/09/08 09:11:27;;;;;;;10.73;4.72;;;33.00;60.90;;;;;;5032359;28;20026;-59
2022/09/08 09:14:04;;;;;;;13.45;4.30;;;33.30;60.10;;;;;;5031501;28;20414;-59
2022/09/08 09:16:54;;;;;;;10.95;5.00;;;32.90;60.50;;;;;;5034029;28;20037;-59
2022/09/08 09:19:36;;;;;;;11.05;4.65;;;33.70;60.90;;;;;;5032890;28;20097;-59
2022/09/08 09:22:45;;;;;;;17.08;5.72;;;34.10;58.00;;;;;;5045288;28;20032;-59
2022/09/08 09:25:14;;;;;;;15.55;4.90;;;33.30;58.00;;;;;;5079867;28;20028;-59
2022/09/08 09:27:58;;;;;;;13.13;4.97;;;34.00;58.50;;;;;;5083239;28;20032;-59
2022/09/08 09:30:41;;;;;;;9.25;4.07;;;34.00;55.90;;;;;;5092579;28;20016;-59
2022/09/08 09:33:34;;;;;;;11.80;4.30;;;34.40;58.20;;;;;;5096101;28;20039;-59
2022/09/08 09:36:15;;;;;;;8.35;4.57;;;33.30;60.70;;;;;;5086820;28;20557;-59
2022/09/08 09:38:50;;;;;;;11.20;5.30;;;33.60;60.00;;;;;;5083476;28;20031;-59
2022/09/08 09:41:55;;;;;;;11.88;5.32;;;34.10;60.00;;;;;;5089837;28;20389;-59
2022/09/08 09:44:24;;;;;;;9.90;3.97;;;33.60;56.20;;;;;;5075592;28;20045;-59
2022/09/08 09:47:18;;;;;;;17.38;5.03;;;33.50;56.10;;;;;;5083933;28;20024;-59
2022/09/08 09:50:15;;;;;;;12.32;4.97;;;34.20;59.00;;;;;;5086625;28;20189;-59
2022/09/08 09:53:02;;;;;;;13.45;5.20;;;34.60;56.50;;;;;;5107608;28;20028;-59
2022/09/08 09:55:38;;;;;;;24.35;6.97;;;35.30;56.40;;;;;;5106707;28;20114;-59
2022/09/08 09:58:36;;;;;;;8.85;4.10;;;35.30;54.70;;;;;;5116162;28;20472;-59
2022/09/08 10:01:31;;;;;;;15.25;3.88;;;35.10;51.30;;;;;;5105978;28;20023;-59
2022/09/08 10:04:00;;;;;;;8.32;3.75;;;35.50;52.80;;;;;;5104202;28;20118;-59
2022/09/08 10:06:57;;;;;;;10.80;4.60;;;35.70;51.70;;;;;;5104245;28;20039;-59
2022/09/08 10:10:01;;;;;;;13.93;3.83;;;35.50;52.10;;;;;;5103730;28;20112;-59
2022/09/08 10:12:49;;;;;;;12.25;4.22;;;35.80;52.10;;;;;;5101401;28;20047;-59
2022/09/08 10:15:30;;;;;;;15.38;5.32;;;36.30;52.70;;;;;;5104676;28;20023;-59
2022/09/08 10:18:05;;;;;;;9.00;4.03;;;36.70;50.10;;;;;;5102558;28;20067;-59
2022/09/08 10:21:09;;;;;;;10.75;3.83;;;36.40;49.10;;;;;;5107838;28;20051;-59
2022/09/08 10:23:47;;;;;;;8.63;3.83;;;36.60;48.30;;;;;;5103956;28;20027;-59
2022/09/08 10:26:25;;;;;;;9.75;3.78;;;36.50;46.90;;;;;;5107734;28;20059;-59
2022/09/08 10:28:56;;;;;;;7.53;4.00;;;36.80;48.00;;;;;;5108298;28;20055;-59
2022/09/08 10:31:55;;;;;;;10.30;3.67;;;36.70;46.70;;;;;;5108540;28;20100;-59
2022/09/08 10:34:45;;;;;;;12.32;4.20;;;36.50;49.60;;;;;;5080345;28;20035;-59
2022/09/08 10:37:35;;;;;;;13.90;4.25;;;37.10;45.70;;;;;;5113561;28;20038;-59
2022/09/08 10:40:16;;;;;;;;;;;37.40;44.30;;;;;;5114302;28;20023;-59
2022/09/08 10:42:47;;;;;;;20.13;5.95;;;37.00;44.10;;;;;;5114872;28;19912;-59
2022/09/08 10:45:37;;;;;;;14.88;4.40;;;36.50;45.00;;;;;;5114807;28;20480;-59
2022/09/08 10:48:44;;;;;;;14.70;5.95;;;36.30;45.20;;;;;;5115103;28;20024;-59
2022/09/08 10:51:40;;;;;;;21.40;6.65;;;36.10;44.90;;;;;;5113879;28;20638;-59
2022/09/08 10:54:25;;;;;;;17.90;5.63;;;35.70;44.60;;;;;;5114229;28;20032;-59
2022/09/08 10:56:58;;;;;;;19.00;6.25;;;35.70;47.00;;;;;;5104987;28;20104;-59
2022/09/08 10:59:49;;;;;;;13.25;4.90;;;36.00;46.90;;;;;;5094216;28;20462;-59
2022/09/08 11:02:35;;;;;;;27.70;6.20;;;36.70;43.40;;;;;;5108503;28;20152;-59
2022/09/08 11:05:38;;;;;;;15.27;4.88;;;36.10;43.50;;;;;;5114437;28;20374;-59
2022/09/08 11:08:19;;;;;;;11.75;4.60;;;35.60;44.30;;;;;;5115068;28;20058;-59
2022/09/08 11:11:04;;;;;;;19.15;5.57;;;34.80;46.00;;;;;;5106935;28;20489;-59
2022/09/08 11:14:01;;;;;;;12.80;4.85;;;35.80;48.80;;;;;;5094304;28;20032;-59
2022/09/08 11:16:54;;;;;;;14.52;4.88;;;36.20;44.40;;;;;;5113100;28;20038;-59
2022/09/08 11:19:38;;;;;;;17.40;5.90;;;36.70;44.40;;;;;;5113915;28;20028;-59
2022/09/08 11:22:25;;;;;;;12.30;4.53;;;36.50;42.80;;;;;;5113696;28;20036;-60
2022/09/08 11:24:59;;;;;;;12.80;4.53;;;36.70;46.00;;;;;;5105862;28;20074;-59
2022/09/08 11:27:37;;;;;;;12.55;4.78;;;36.00;44.00;;;;;;5110933;28;20035;-59
2022/09/08 11:30:03;;;;;;;9.90;3.55;;;36.00;44.00;;;;;;5114690;28;20032;-59
2022/09/08 11:32:39;;;;;;;17.90;4.40;;;36.50;43.30;;;;;;5114615;28;20047;-59
2022/09/08 11:35:58;;;;;;;9.15;3.75;;;36.80;44.60;;;;;;5114659;28;20035;-60
2022/09/08 11:38:43;;;;;;;27.77;6.50;;;37.10;44.80;;;;;;5048125;28;20383;-59
2022/09/08 11:41:24;;;;;;;12.55;3.78;;;37.40;45.20;;;;;;5051661;28;20029;-59
2022/09/08 11:44:01;;;;;;;8.98;3.85;;;37.80;45.50;;;;;;5051004;28;20620;-59
2022/09/08 11:46:33;;;;;;;15.02;5.90;;;37.40;44.40;;;;;;5042921;28;20386;-59
2022/09/08 11:49:23;;;;;;;11.23;4.25;;;37.30;42.60;;;;;;5050106;28;20028;-59
2022/09/08 11:52:30;;;;;;;11.70;4.30;;;36.60;45.00;;;;;;5048876;28;20168;-59
2022/09/08 11:55:52;;;;;;;14.43;5.00;;;35.80;43.10;;;;;;5049873;28;20077;-59
2022/09/08 11:58:36;;;;;;;14.25;5.30;;;36.70;45.70;;;;;;5017930;28;20491;-59
2022/09/08 12:01:20;;;;;;;15.20;4.95;;;36.80;42.50;;;;;;5015270;28;20061;-59
2022/09/08 12:04:09;;;;;;;14.27;5.22;;;36.70;42.70;;;;;;5012305;28;20053;-59
2022/09/08 12:07:05;;;;;;;8.23;3.88;;;37.20;41.90;;;;;;5015108;28;20054;-59
2022/09/08 12:09:46;;;;;;;10.35;4.65;;;37.30;40.80;;;;;;5011906;28;20034;-59
2022/09/08 12:12:41;;;;;;;8.65;4.10;;;35.90;44.10;;;;;;5028727;28;20037;-59
2022/09/08 12:15:19;;;;;;;10.00;3.83;;;36.80;42.40;;;;;;5038129;28;20049;-59
2022/09/08 12:18:04;;;;;;;9.25;3.78;;;37.10;40.10;;;;;;5055526;28;20045;-59
2022/09/08 12:20:54;;;;;;;8.43;4.32;;;36.40;40.30;;;;;;5057159;28;20045;-59
2022/09/08 12:23:40;;;;;;;12.73;6.10;;;36.70;41.90;;;;;;5037650;28;20047;-59
2022/09/08 12:26:15;;;;;;;12.00;4.45;;;36.80;40.60;;;;;;5037666;28;20118;-59
2022/09/08 12:28:59;;;;;;;15.55;5.57;;;37.30;42.00;;;;;;5066597;28;20040;-59
2022/09/08 12:31:49;;;;;;;9.77;4.00;;;37.20;42.00;;;;;;5109320;28;20027;-59
2022/09/08 12:34:27;;;;;;;15.05;4.95;;;37.40;42.90;;;;;;5109461;28;20012;-59
2022/09/08 12:37:14;;;;;;;15.80;5.47;;;37.60;41.00;;;;;;5107364;28;20020;-59
2022/09/08 12:39:49;;;;;;;13.25;4.78;;;37.80;41.50;;;;;;5107265;28;20493;-59
2022/09/08 12:42:54;;;;;;;8.00;3.70;;;37.10;40.00;;;;;;5108276;28;20057;-59
2022/09/08 12:45:26;;;;;;;14.35;4.38;;;37.10;42.60;;;;;;5104002;28;20039;-59
2022/09/08 12:48:03;;;;;;;23.48;6.30;;;37.50;42.90;;;;;;5104317;28;20116;-59
2022/09/08 12:50:53;;;;;;;16.08;4.50;;;37.80;40.10;;;;;;5109044;28;20055;-59
2022/09/08 12:53:44;;;;;;;7.88;4.03;;;37.80;39.50;;;;;;5105964;28;20057;-59
2022/09/08 12:56:10;;;;;;;8.32;4.50;;;37.90;38.70;;;;;;5106252;28;20031;-59
2022/09/08 12:58:51;;;;;;;13.32;5.20;;;37.50;39.10;;;;;;5101485;28;20031;-59
2022/09/08 13:01:40;;;;;;;14.50;5.00;;;37.00;40.60;;;;;;5109726;28;20358;-59
2022/09/08 13:04:36;;;;;;;11.80;4.53;;;36.80;43.40;;;;;;5105885;28;20055;-59
2022/09/08 13:07:40;;;;;;;13.85;4.32;;;36.70;41.50;;;;;;5105412;28;20024;-59
2022/09/08 13:10:27;;;;;;;15.57;5.32;;;36.50;41.40;;;;;;5103227;28;20023;-59
2022/09/08 13:13:15;;;;;;;9.75;4.35;;;36.70;40.80;;;;;;5104877;28;20477;-59
2022/09/08 13:15:55;;;;;;;11.73;5.13;;;36.50;41.80;;;;;;5105714;28;20027;-59
2022/09/08 13:18:52;;;;;;;11.73;4.50;;;36.10;44.10;;;;;;5100653;28;20435;-59
2022/09/08 13:21:48;;;;;;;12.65;5.35;;;35.90;43.20;;;;;;5107329;28;20023;-59
2022/09/08 13:24:29;;;;;;;15.63;4.95;;;35.70;43.70;;;;;;5109194;28;20488;-59
2022/09/08 13:27:08;;;;;;;12.07;4.35;;;35.80;42.20;;;;;;5112577;28;20034;-59
2022/09/08 13:29:48;;;;;;;21.23;5.30;;;35.70;46.20;;;;;;5110734;27;20028;-59
2022/09/08 13:32:51;;;;;;;19.08;5.35;;;35.60;45.50;;;;;;5096874;28;20024;-59
2022/09/08 13:35:38;;;;;;;14.35;4.95;;;35.40;46.60;;;;;;5096582;28;20537;-59